• Join FlightAware (Why Join?)
  • Login
  • US Flag 
09:50PM EST


 

Airport Tracker/Info


-or-


 

Live Flight TrackerFlight Track Log ✈ SIL4077 ✈ 02-May-2013 ✈ KBFD - KCLE

Flight Track Log - Related Links

Times and Time Zones

All times are in EDT time to prevent confusion due to time zone crossing. See the SIL4077 flight status page for this flight to view local times or setup timezone preferences in your user account.

Time Position Orientation Groundspeed Altitude Reporting Facility
EDT Latitude Longitude Course Direction KTS MPH feet Rate Location/Type
01:06PM 41.8103 -78.6525 264° West 230 265 14,000  Level Cleveland Center
01:07PM 41.8086 -78.6750 264° West 230 265 14,000  Level Cleveland Center
01:08PM 41.8000 -78.7783 264° West 230 265 14,000  Level Cleveland Center
01:09PM 41.7911 -78.8844 264° West 230 265 14,000  Level Cleveland Center
01:10PM 41.7839 -78.9681 263° West 230 265 14,000 -3,300 Level Cleveland Center
01:12PM 41.7747 -78.6425 92° East 284 327 4,100 -2,400 Descending Cleveland Center
01:13PM 41.7717 -78.7122 267° West 222 255 6,800 2,760 Climbing Cleveland Center
01:14PM 41.7728 -78.7844 271° West 197 227 9,700 2,640 Climbing Cleveland Center
01:15PM 41.7719 -78.8569 269° West 197 227 12,100 2,100 Climbing Cleveland Center
01:16PM 41.7750 -78.9264 273° West 197 227 14,000 900 Climbing Cleveland Center
01:17PM 41.7783 -79.0183 273° West 219 252 14,000  Level Cleveland Center
01:18PM 41.7694 -79.1242 264° West 258 297 14,000  Level Cleveland Center
01:19PM 41.7581 -79.2275 262° West 279 321 14,100  Climbing Cleveland Center
01:20PM 41.7489 -79.3364 264° West 290 334 14,000 -60 Descending Cleveland Center
01:21PM 41.7314 -79.4394 257° West 290 334 14,000  Level Cleveland Center
01:22PM 41.7114 -79.5400 255° West 295 339 14,000  Level Cleveland Center
01:23PM 41.6956 -79.6239 256° West 295 339 14,000  Level Cleveland Center
01:24PM 41.6797 -79.7381 260° West 295 339 14,000  Level Cleveland Center
01:25PM 41.6700 -79.8467 263° West 295 339 14,000  Level Cleveland Center
01:26PM 41.6603 -79.9633 264° West 295 339 14,000  Level Cleveland Center
01:27PM 41.6503 -80.0692 263° West 295 339 14,100  Climbing Cleveland Center
01:28PM 41.6361 -80.1747 260° West 295 339 14,000 -60 Descending Cleveland Center
01:29PM 41.6239 -80.2803 261° West 295 339 14,000  Level Cleveland Center
01:30PM 41.6117 -80.3942 262° West 295 339 14,000  Level Cleveland Center
01:31PM 41.5972 -80.4997 260° West 295 339 14,000 -180 Level Cleveland Center
01:32PM 41.5847 -80.6053 261° West 295 339 13,700 -720 Descending Cleveland Center
01:33PM 41.5722 -80.7164 261° West 295 339 12,600 -1,260 Descending Cleveland Center
01:34PM 41.5575 -80.8272 260° West 292 336 11,100 -1,440 Descending Cleveland Center
01:35PM 41.5467 -80.9439 263° West 289 333 9,600 -1,140 Descending Cleveland Center
01:36PM 41.5400 -81.0325 264° West 295 339 9,000 -360 Descending Cleveland Center
01:37PM 41.5333 -81.1325 265° West 290 334 9,000  Level Cleveland Center
01:38PM 41.5244 -81.2350 263° West 290 334 9,000 -300 Level Cleveland Center
01:39PM 41.5178 -81.3264 264° West 285 328 8,500 -840 Descending Cleveland Center
01:39PM 41.5153 -81.3594 264° West 277 319 8,000 -1,320 Descending Cleveland Center
01:40PM 41.5128 -81.4261 267° West 275 316 7,200 -1,140 Descending Cleveland Center
01:40PM 41.5083 -81.4678 262° West 271 312 6,900 -840 Descending Cleveland Center
01:41PM 41.5058 -81.5258 267° West 275 316 6,400 -720 Descending Cleveland Center
01:42PM 41.4967 -81.6228 263° West 270 311 5,700 -1,140 Descending Cleveland Center
01:43PM 41.4875 -81.7114 262° West 258 297 4,200 -1,800 Descending Cleveland Center
01:43PM 41.4808 -81.7417 254° West 223 257 3,400 -1,740 Descending Cleveland Center
01:44PM 41.4469 -81.7908 227° Southwest 149 171 2,000 -1,200 Descending Cleveland Center
01:45PM 41.4236 -81.8292 231° Southwest 117 135 1,100 -900 Descending Cleveland Center
01:47PM 41.4000 -81.8500 246° West  Level FlightAware Approximate
01:54PM 41.4094 -81.8547 246° West  Level Estimated